Time;durP1;ratioP1;P1;durP2;ratioP2;P2;SDS_P1;SDS_P2;PMS_P1;PMS_P2;Temp;Humidity;BMP_temperature;BMP_pressure;BME280_temperature;BME280_humidity;BME280_pressure;Samples;Min_cycle;Max_cycle;Signal;HPM_P1;HPM_P2
2023/03/27 00:00:40;;;;;;;20.50;2.60;;;6.80;51.20;;;;;;5001841;28;20061;-49
2023/03/27 00:03:10;;;;;;;18.88;2.67;;;6.80;51.30;;;;;;4999283;28;20080;-46
2023/03/27 00:05:37;;;;;;;13.25;2.08;;;6.80;51.60;;;;;;5001382;28;20058;-49
2023/03/27 00:08:08;;;;;;;20.95;2.38;;;6.80;51.80;;;;;;5001543;28;20053;-48
2023/03/27 00:10:35;;;;;;;13.48;2.53;;;6.80;52.00;;;;;;5000551;28;20046;-47
2023/03/27 00:13:04;;;;;;;14.95;1.95;;;6.80;52.10;;;;;;4997162;28;20065;-48
2023/03/27 00:15:33;;;;;;;15.55;2.33;;;6.70;52.10;;;;;;5000407;28;20062;-48
2023/03/27 00:18:02;;;;;;;17.92;2.42;;;6.80;52.20;;;;;;5001483;28;20502;-50
2023/03/27 00:20:32;;;;;;;18.13;2.67;;;6.80;52.10;;;;;;4997735;28;20050;-49
2023/03/27 00:22:59;;;;;;;20.05;2.40;;;6.80;52.40;;;;;;4999915;28;20057;-45
2023/03/27 00:25:28;;;;;;;21.63;3.00;;;6.70;51.90;;;;;;5000303;28;20057;-49
2023/03/27 00:27:57;;;;;;;12.52;2.38;;;6.70;51.90;;;;;;4997400;28;20069;-46
2023/03/27 00:30:27;;;;;;;17.05;2.05;;;6.70;51.80;;;;;;4998667;28;20060;-49
2023/03/27 00:32:55;;;;;;;15.85;2.05;;;6.70;51.70;;;;;;5000949;28;20412;-47
2023/03/27 00:35:23;;;;;;;18.45;2.20;;;6.70;51.90;;;;;;5000094;28;20046;-47
2023/03/27 00:37:50;;;;;;;19.98;2.10;;;6.70;51.60;;;;;;4999481;28;20046;-49
2023/03/27 00:40:17;;;;;;;13.30;2.00;;;6.70;51.90;;;;;;4995402;28;20163;-48
2023/03/27 00:42:46;;;;;;;20.10;2.20;;;6.70;51.90;;;;;;4998801;28;20367;-48
2023/03/27 00:45:17;;;;;;;8.82;1.80;;;6.70;52.00;;;;;;5000807;28;20572;-47
2023/03/27 00:47:47;;;;;;;12.10;1.83;;;6.70;52.00;;;;;;5001174;28;20882;-50
2023/03/27 00:50:18;;;;;;;18.73;2.35;;;6.80;52.20;;;;;;4997201;28;20061;-46
2023/03/27 00:52:51;;;;;;;29.13;2.50;;;6.80;52.30;;;;;;4999238;28;20119;-49
2023/03/27 00:55:21;;;;;;;15.93;2.47;;;6.80;52.20;;;;;;5000210;28;20050;-45
2023/03/27 00:57:51;;;;;;;16.35;2.42;;;6.80;52.20;;;;;;4998028;28;20064;-46
2023/03/27 01:00:20;;;;;;;16.58;2.50;;;6.70;52.30;;;;;;4995775;28;20074;-52
2023/03/27 01:02:54;;;;;;;19.50;2.78;;;6.70;52.20;;;;;;4998170;28;21146;-49
2023/03/27 01:05:21;;;;;;;11.40;2.13;;;6.70;52.30;;;;;;4994985;28;20084;-45
2023/03/27 01:07:50;;;;;;;13.35;2.72;;;6.70;52.30;;;;;;4995880;28;20072;-45
2023/03/27 01:10:18;;;;;;;13.27;2.15;;;6.70;52.40;;;;;;4998177;28;20069;-49
2023/03/27 01:12:54;;;;;;;15.02;2.30;;;6.70;52.40;;;;;;4999434;28;20061;-49
2023/03/27 01:15:35;;;;;;;20.05;2.65;;;6.70;52.50;;;;;;4997860;28;20061;-46
2023/03/27 01:18:19;;;;;;;9.38;1.70;;;6.70;52.60;;;;;;5000963;28;20528;-45
2023/03/27 01:21:21;;;;;;;12.88;2.20;;;6.70;52.80;;;;;;4997938;28;20060;-50
2023/03/27 01:24:10;;;;;;;25.70;2.83;;;6.60;52.80;;;;;;4999992;28;20066;-49
2023/03/27 01:26:58;;;;;;;18.42;2.08;;;6.60;52.80;;;;;;4999199;28;20068;-49
2023/03/27 01:29:57;;;;;;;24.77;2.60;;;6.60;52.90;;;;;;4997730;28;20062;-49
2023/03/27 01:33:04;;;;;;;22.77;3.15;;;6.50;53.00;;;;;;4999525;28;20058;-46
2023/03/27 01:35:58;;;;;;;25.25;2.47;;;6.50;53.20;;;;;;5000364;28;20062;-46
2023/03/27 01:38:47;;;;;;;23.75;2.60;;;6.50;53.30;;;;;;4998581;28;20049;-48
2023/03/27 01:41:21;;;;;;;22.38;2.90;;;6.50;53.40;;;;;;4974019;28;20609;-51
2023/03/27 01:43:54;;;;;;;18.55;2.70;;;6.40;53.30;;;;;;4997680;28;20058;-45
2023/03/27 01:46:26;;;;;;;30.13;3.03;;;6.40;53.40;;;;;;4999317;28;20058;-45
2023/03/27 01:48:57;;;;;;;15.57;2.15;;;6.40;53.60;;;;;;4998715;28;20050;-47
2023/03/27 01:51:29;;;;;;;16.40;2.72;;;6.40;53.70;;;;;;4998647;28;20422;-47
2023/03/27 01:54:01;;;;;;;26.70;2.95;;;6.30;53.70;;;;;;4997997;28;20054;-50
2023/03/27 01:56:36;;;;;;;18.85;2.25;;;6.30;53.70;;;;;;4998447;28;20050;-48
2023/03/27 01:59:08;;;;;;;19.23;2.80;;;6.30;53.80;;;;;;4997448;28;20049;-50
2023/03/27 02:01:38;;;;;;;20.67;2.92;;;6.20;53.80;;;;;;4998125;28;20050;-50
2023/03/27 02:04:10;;;;;;;24.30;3.42;;;6.20;53.90;;;;;;4999265;28;20054;-46
2023/03/27 02:06:42;;;;;;;24.42;2.85;;;6.20;54.00;;;;;;5000051;28;20053;-48
2023/03/27 02:09:16;;;;;;;23.60;3.08;;;6.20;54.10;;;;;;4997297;28;20064;-48
2023/03/27 02:11:54;;;;;;;18.10;2.85;;;6.20;54.10;;;;;;4996179;28;20054;-48
2023/03/27 02:14:26;;;;;;;13.40;2.17;;;6.20;54.10;;;;;;4997854;28;20053;-46
2023/03/27 02:16:58;;;;;;;27.33;3.03;;;6.20;54.10;;;;;;4997851;28;20516;-48
2023/03/27 02:19:32;;;;;;;21.25;3.10;;;6.20;54.10;;;;;;4998293;28;20065;-47
2023/03/27 02:21:59;;;;;;;;;;;6.20;54.10;;;;;;4999484;28;20054;-48
2023/03/27 02:24:26;;;;;;;32.42;3.85;;;6.30;54.10;;;;;;5000453;28;19925;-45
2023/03/27 02:27:03;;;;;;;20.92;3.15;;;6.30;54.10;;;;;;4994114;28;20050;-48
2023/03/27 02:29:46;;;;;;;18.50;3.28;;;6.20;54.10;;;;;;4999058;28;20050;-48
2023/03/27 02:32:23;;;;;;;23.95;3.40;;;6.20;54.30;;;;;;5000011;28;20058;-46
2023/03/27 02:35:04;;;;;;;16.02;2.85;;;6.20;54.30;;;;;;4999939;28;20485;-46
2023/03/27 02:37:41;;;;;;;13.88;3.00;;;6.20;54.50;;;;;;4996436;28;20053;-48
2023/03/27 02:40:14;;;;;;;21.75;3.13;;;6.20;54.60;;;;;;4998941;28;20050;-48
2023/03/27 02:42:53;;;;;;;18.13;2.90;;;6.20;54.60;;;;;;4998573;28;20061;-48
2023/03/27 02:45:26;;;;;;;23.70;4.28;;;6.10;54.70;;;;;;4999615;28;20521;-46
2023/03/27 02:47:58;;;;;;;17.95;3.35;;;6.10;54.90;;;;;;4999539;28;20058;-47
2023/03/27 02:50:31;;;;;;;24.27;3.75;;;6.00;54.90;;;;;;4999439;28;20512;-48
2023/03/27 02:53:02;;;;;;;15.33;3.30;;;6.00;55.10;;;;;;4998148;28;20061;-54
2023/03/27 02:55:34;;;;;;;20.23;3.22;;;6.00;55.20;;;;;;4995156;28;20499;-53
2023/03/27 02:58:06;;;;;;;20.30;3.28;;;5.90;55.30;;;;;;5001448;28;20058;-53
2023/03/27 03:00:39;;;;;;;21.38;3.03;;;5.90;55.40;;;;;;4999616;28;20057;-51
2023/03/27 03:03:11;;;;;;;19.20;3.42;;;5.90;55.60;;;;;;4999504;28;20569;-54
2023/03/27 03:05:39;;;;;;;19.77;3.80;;;5.80;55.70;;;;;;4997323;28;20617;-55
2023/03/27 03:08:09;;;;;;;28.58;3.47;;;5.80;55.70;;;;;;4999270;28;20070;-54
2023/03/27 03:10:37;;;;;;;26.90;4.57;;;5.80;55.80;;;;;;5001530;28;20066;-55
2023/03/27 03:13:05;;;;;;;17.60;3.20;;;5.80;55.90;;;;;;5001415;28;20405;-54
2023/03/27 03:15:32;;;;;;;25.27;3.40;;;5.80;56.00;;;;;;5000634;28;20070;-55
2023/03/27 03:18:00;;;;;;;25.25;3.47;;;5.80;56.10;;;;;;5001109;28;20402;-55
2023/03/27 03:20:28;;;;;;;29.00;3.60;;;5.80;56.10;;;;;;5002018;28;20045;-53
2023/03/27 03:22:56;;;;;;;14.60;2.88;;;5.70;56.10;;;;;;5000454;28;20064;-55
2023/03/27 03:25:24;;;;;;;26.20;4.18;;;5.70;56.10;;;;;;4999485;28;20065;-55
2023/03/27 03:27:56;;;;;;;17.20;3.03;;;5.70;56.10;;;;;;5002234;28;20054;-55
2023/03/27 03:30:26;;;;;;;16.10;3.15;;;5.70;56.10;;;;;;5000416;28;20066;-54
2023/03/27 03:32:53;;;;;;;20.23;3.25;;;5.70;56.10;;;;;;5003865;28;20434;-55
2023/03/27 03:35:21;;;;;;;13.38;2.53;;;5.70;56.10;;;;;;5001614;28;20698;-54
2023/03/27 03:37:49;;;;;;;19.00;3.33;;;5.70;56.10;;;;;;5001991;28;20065;-55
2023/03/27 03:40:17;;;;;;;14.90;3.30;;;5.70;56.20;;;;;;5001310;28;20058;-55
2023/03/27 03:42:45;;;;;;;17.05;3.60;;;5.70;56.20;;;;;;4998871;28;20057;-55
2023/03/27 03:45:12;;;;;;;14.32;2.45;;;5.70;56.20;;;;;;5002181;28;20529;-55
2023/03/27 03:47:41;;;;;;;17.00;3.08;;;5.70;56.10;;;;;;5002507;28;20053;-55
2023/03/27 03:51:01;;;;;;;15.90;2.50;;;5.70;56.20;;;;;;4999842;28;20379;-55
2023/03/27 03:53:28;;;;;;;16.30;3.20;;;5.70;56.20;;;;;;5000351;28;20403;-55
2023/03/27 03:55:56;;;;;;;25.92;3.92;;;5.70;56.10;;;;;;4998283;28;20498;-55
2023/03/27 03:58:23;;;;;;;14.23;3.03;;;5.70;56.60;;;;;;5000406;28;20061;-55
2023/03/27 04:00:50;;;;;;;10.30;2.17;;;5.70;56.10;;;;;;5002148;28;20076;-55
2023/03/27 04:03:19;;;;;;;11.10;2.45;;;5.70;56.10;;;;;;5002078;28;20399;-55
2023/03/27 04:05:46;;;;;;;15.52;2.80;;;5.70;56.10;;;;;;5001351;28;20061;-54
2023/03/27 04:08:14;;;;;;;16.58;2.75;;;5.70;56.10;;;;;;5000716;28;20058;-54
2023/03/27 04:10:41;;;;;;;13.70;2.85;;;5.70;56.10;;;;;;5000070;28;20050;-55
2023/03/27 04:13:08;;;;;;;17.92;2.72;;;5.70;56.10;;;;;;4999564;28;20061;-55
2023/03/27 04:15:36;;;;;;;21.23;4.10;;;5.70;56.10;;;;;;5000819;28;20061;-56
2023/03/27 04:18:03;;;;;;;14.65;2.47;;;5.70;56.10;;;;;;4997308;28;20116;-56
2023/03/27 04:20:33;;;;;;;24.00;3.22;;;5.70;56.10;;;;;;5000782;28;20425;-55
2023/03/27 04:23:01;;;;;;;15.13;3.90;;;5.70;56.10;;;;;;5001137;28;20076;-54
2023/03/27 04:25:29;;;;;;;11.05;2.80;;;5.70;56.10;;;;;;4997109;28;20060;-54
2023/03/27 04:27:56;;;;;;;18.77;3.20;;;5.70;56.10;;;;;;5002361;28;20054;-56
2023/03/27 04:30:24;;;;;;;14.68;3.20;;;5.70;56.10;;;;;;5001427;28;20080;-56
2023/03/27 04:32:53;;;;;;;13.00;2.55;;;5.70;56.20;;;;;;5000778;28;20057;-56
2023/03/27 04:35:22;;;;;;;12.60;3.08;;;5.70;56.20;;;;;;4999836;28;20056;-55
2023/03/27 04:37:51;;;;;;;13.73;2.30;;;5.70;56.30;;;;;;5000720;28;20054;-54
2023/03/27 04:40:19;;;;;;;19.20;3.25;;;5.70;56.30;;;;;;4998968;28;20083;-56
2023/03/27 04:42:49;;;;;;;14.60;2.42;;;5.70;56.30;;;;;;5000058;28;20061;-55
2023/03/27 04:45:19;;;;;;;11.15;2.47;;;5.70;56.20;;;;;;5001201;28;20076;-56
2023/03/27 04:47:47;;;;;;;26.40;3.42;;;5.70;56.20;;;;;;4996824;28;20050;-55
2023/03/27 04:50:15;;;;;;;21.15;3.45;;;5.70;56.20;;;;;;4996369;28;20058;-56
2023/03/27 04:52:43;;;;;;;16.02;3.00;;;5.60;56.20;;;;;;4999542;28;20444;-56
2023/03/27 04:55:12;;;;;;;19.08;3.00;;;5.60;56.20;;;;;;4997384;28;20077;-56
2023/03/27 04:57:40;;;;;;;22.30;3.83;;;5.60;56.80;;;;;;4996573;28;20066;-55
2023/03/27 05:00:15;;;;;;;21.45;3.33;;;5.60;56.40;;;;;;5000047;28;20053;-52
2023/03/27 05:02:43;;;;;;;12.25;2.95;;;5.50;56.40;;;;;;4999467;28;20054;-56
2023/03/27 05:05:11;;;;;;;16.92;3.17;;;5.60;56.40;;;;;;5000897;28;21078;-56
2023/03/27 05:07:38;;;;;;;12.13;3.10;;;5.50;56.40;;;;;;4999642;28;20050;-56
2023/03/27 05:10:06;;;;;;;17.45;3.15;;;5.50;56.40;;;;;;4999714;28;20068;-54
2023/03/27 05:12:35;;;;;;;20.15;3.47;;;5.60;56.50;;;;;;4997775;28;20060;-54
2023/03/27 05:15:04;;;;;;;19.75;3.67;;;5.50;56.50;;;;;;4998906;28;20488;-56
2023/03/27 05:17:32;;;;;;;14.32;2.97;;;5.50;56.40;;;;;;5000305;28;20057;-55
2023/03/27 05:19:59;;;;;;;19.45;3.00;;;5.50;56.50;;;;;;4998861;28;20059;-56
2023/03/27 05:22:27;;;;;;;10.82;2.60;;;5.50;56.50;;;;;;4998818;28;20176;-54
2023/03/27 05:24:54;;;;;;;17.15;2.70;;;5.50;56.50;;;;;;4998171;28;20064;-54
2023/03/27 05:27:21;;;;;;;11.07;2.40;;;5.50;56.50;;;;;;5000125;28;20057;-56
2023/03/27 05:29:50;;;;;;;12.65;2.10;;;5.50;56.50;;;;;;5001082;28;20046;-55
2023/03/27 05:32:17;;;;;;;16.42;3.50;;;5.50;56.50;;;;;;4997238;28;20045;-55
2023/03/27 05:34:44;;;;;;;18.15;2.92;;;5.50;56.50;;;;;;4996673;28;20061;-53
2023/03/27 05:37:12;;;;;;;18.88;2.20;;;5.50;56.40;;;;;;4991140;28;20061;-55
2023/03/27 05:39:40;;;;;;;15.05;2.70;;;5.60;56.50;;;;;;4989367;28;20062;-55
2023/03/27 05:42:07;;;;;;;12.98;2.70;;;5.60;56.40;;;;;;4996378;28;20394;-54
2023/03/27 05:44:34;;;;;;;11.35;2.13;;;5.60;56.40;;;;;;4995358;28;20064;-55
2023/03/27 05:47:03;;;;;;;13.48;2.70;;;5.60;56.40;;;;;;4997916;28;20060;-55
2023/03/27 05:49:30;;;;;;;18.83;2.53;;;5.60;56.40;;;;;;4995344;28;20057;-52
2023/03/27 05:51:58;;;;;;;15.38;3.00;;;5.60;56.40;;;;;;4994731;28;20054;-51
2023/03/27 05:54:25;;;;;;;12.95;2.20;;;5.70;56.40;;;;;;4999104;28;20413;-50
2023/03/27 05:56:52;;;;;;;11.27;2.33;;;5.70;56.30;;;;;;4997584;28;20057;-51
2023/03/27 05:59:19;;;;;;;13.65;2.25;;;5.70;56.30;;;;;;4997838;28;20053;-51
2023/03/27 06:01:47;;;;;;;10.90;2.40;;;5.70;56.30;;;;;;4994152;28;20046;-52
2023/03/27 06:04:17;;;;;;;14.35;3.28;;;5.70;56.40;;;;;;5000044;28;20061;-51
2023/03/27 06:06:49;;;;;;;12.05;2.55;;;5.80;56.40;;;;;;4996704;28;20061;-50
2023/03/27 06:09:26;;;;;;;8.23;2.08;;;5.80;56.40;;;;;;5000107;28;20538;-52
2023/03/27 06:12:31;;;;;;;11.38;2.45;;;5.80;56.40;;;;;;5010095;28;20077;-51
2023/03/27 06:15:17;;;;;;;17.35;2.42;;;5.80;56.50;;;;;;4921390;28;20527;-51
2023/03/27 06:18:34;;;;;;;15.55;2.80;;;5.90;56.50;;;;;;4922272;28;20266;-49
2023/03/27 06:21:56;;;;;;;17.13;2.55;;;5.90;56.50;;;;;;4989752;28;20057;-48
2023/03/27 06:24:33;;;;;;;9.13;2.28;;;5.90;56.60;;;;;;4982270;28;20061;-51
2023/03/27 06:27:12;;;;;;;24.45;3.17;;;6.00;56.60;;;;;;4995560;28;20073;-48
2023/03/27 06:33:04;;;;;;;10.98;2.70;;;6.00;56.70;;;;;;4986500;28;20129;-49
2023/03/27 06:35:44;;;;;;;;;;;6.10;56.80;;;;;;5001081;28;20060;-52
2023/03/27 06:38:19;;;;;;;8.13;2.13;;;6.10;56.70;;;;;;5001172;28;19925;-51
2023/03/27 06:41:29;;;;;;;16.40;2.65;;;6.10;56.60;;;;;;4999720;28;20061;-50
2023/03/27 06:47:17;;;;;;;11.60;2.63;;;6.20;56.60;;;;;;4885751;29;20055;-50
2023/03/27 06:50:16;;;;;;;;;;;;;;;;;;;;;
2023/03/27 06:56:08;;;;;;;;;;;;;;;;;;;;;
2023/03/27 07:01:37;;;;;;;7.45;2.22;;;6.40;56.60;;;;;;4918201;29;20059;-52
2023/03/27 07:04:05;;;;;;;10.80;2.85;;;6.40;57.10;;;;;;4998123;28;20436;-50
2023/03/27 07:06:32;;;;;;;15.75;3.25;;;6.50;56.80;;;;;;5001590;28;20054;-48
2023/03/27 07:08:59;;;;;;;7.57;2.63;;;6.60;56.80;;;;;;5000811;28;21526;-50
2023/03/27 07:11:27;;;;;;;19.48;3.50;;;6.60;56.80;;;;;;5001677;28;20046;-50
2023/03/27 07:13:54;;;;;;;18.60;3.70;;;6.60;56.90;;;;;;5002794;28;20501;-51
2023/03/27 07:16:21;;;;;;;8.38;2.30;;;6.70;56.60;;;;;;5003305;28;20053;-50
2023/03/27 07:18:50;;;;;;;20.27;3.47;;;6.70;56.50;;;;;;5000845;28;20062;-52
2023/03/27 07:21:17;;;;;;;12.23;3.28;;;6.70;56.50;;;;;;5000519;28;20504;-53
2023/03/27 07:23:45;;;;;;;13.68;3.08;;;6.80;56.50;;;;;;5001970;28;20054;-53
2023/03/27 07:26:12;;;;;;;15.95;3.50;;;6.80;56.60;;;;;;4997567;28;20054;-50
2023/03/27 07:28:39;;;;;;;16.48;3.35;;;6.80;56.60;;;;;;5000012;28;20049;-51
2023/03/27 07:31:09;;;;;;;19.75;4.22;;;6.80;56.60;;;;;;4999446;28;20502;-50
2023/03/27 07:33:37;;;;;;;17.40;3.85;;;6.90;56.40;;;;;;4999515;28;20053;-52
2023/03/27 07:36:09;;;;;;;14.98;4.00;;;6.90;56.40;;;;;;5001435;28;20087;-53
2023/03/27 07:38:36;;;;;;;13.35;3.60;;;6.90;56.50;;;;;;4995254;28;20062;-49
2023/03/27 07:41:05;;;;;;;16.83;4.30;;;6.90;56.60;;;;;;4987046;28;20050;-52
2023/03/27 07:43:33;;;;;;;11.25;3.90;;;6.90;56.60;;;;;;4997360;28;20057;-51
2023/03/27 07:46:01;;;;;;;18.17;4.68;;;6.90;56.60;;;;;;5000843;28;20513;-49
2023/03/27 07:48:29;;;;;;;20.90;4.20;;;6.90;56.70;;;;;;5001394;28;20057;-50
2023/03/27 07:50:58;;;;;;;16.27;4.25;;;6.90;56.70;;;;;;4999816;28;20060;-51
2023/03/27 07:53:27;;;;;;;23.30;4.13;;;6.90;56.70;;;;;;5000845;28;20064;-50
2023/03/27 07:55:57;;;;;;;15.65;4.40;;;7.00;56.80;;;;;;4999273;28;20069;-53
2023/03/27 07:58:25;;;;;;;18.38;4.30;;;7.00;56.70;;;;;;4999468;28;20156;-53
2023/03/27 08:00:52;;;;;;;17.13;4.97;;;7.00;56.70;;;;;;4999892;28;20057;-52
2023/03/27 08:03:20;;;;;;;14.25;3.60;;;7.10;56.80;;;;;;5000176;28;20057;-51
2023/03/27 08:05:55;;;;;;;14.93;3.85;;;7.10;56.60;;;;;;4993582;28;20072;-51
2023/03/27 08:08:22;;;;;;;10.95;3.53;;;7.10;56.70;;;;;;5000655;28;20054;-51
2023/03/27 08:10:54;;;;;;;10.95;3.30;;;7.20;56.90;;;;;;4998676;28;20370;-53
2023/03/27 08:13:21;;;;;;;14.73;3.85;;;7.20;57.00;;;;;;5000684;28;20073;-49
2023/03/27 08:15:48;;;;;;;12.40;3.83;;;7.30;57.10;;;;;;5000643;28;20057;-52
2023/03/27 08:18:16;;;;;;;17.40;5.03;;;7.40;57.10;;;;;;5001734;28;20057;-49
2023/03/27 08:20:44;;;;;;;15.48;4.22;;;7.40;57.10;;;;;;4999571;28;20061;-48
2023/03/27 08:23:11;;;;;;;13.73;4.28;;;7.50;57.00;;;;;;4999993;28;20073;-49
2023/03/27 08:25:41;;;;;;;10.90;3.53;;;7.50;56.80;;;;;;5000232;28;20053;-53
2023/03/27 08:28:10;;;;;;;11.60;3.35;;;7.60;56.70;;;;;;4996548;28;20500;-50
2023/03/27 08:30:37;;;;;;;13.30;3.60;;;7.70;56.40;;;;;;4999849;28;20065;-53
2023/03/27 08:33:04;;;;;;;14.43;2.97;;;7.70;56.30;;;;;;4999422;28;20054;-48
2023/03/27 08:35:31;;;;;;;11.98;2.95;;;7.80;56.20;;;;;;4995655;28;20054;-50
2023/03/27 08:37:59;;;;;;;7.28;2.90;;;7.80;56.10;;;;;;4999068;28;20072;-50
2023/03/27 08:40:29;;;;;;;10.93;2.80;;;7.80;56.00;;;;;;4999387;28;20062;-49
2023/03/27 08:43:02;;;;;;;13.15;2.85;;;7.90;55.70;;;;;;4989196;28;20517;-50
2023/03/27 08:45:38;;;;;;;10.73;2.50;;;7.90;55.60;;;;;;4997191;28;20053;-51
2023/03/27 08:48:11;;;;;;;10.35;2.40;;;8.00;55.50;;;;;;5000660;28;20524;-49
2023/03/27 08:50:43;;;;;;;14.38;2.33;;;8.00;55.50;;;;;;4998116;28;20057;-51
2023/03/27 08:53:19;;;;;;;8.93;2.15;;;8.10;55.50;;;;;;4996532;28;20049;-52
2023/03/27 08:55:46;;;;;;;8.90;2.30;;;8.10;55.40;;;;;;4990043;28;20056;-54
2023/03/27 08:58:18;;;;;;;9.20;2.03;;;8.10;54.80;;;;;;4988348;28;20469;-52
2023/03/27 09:00:53;;;;;;;16.48;2.00;;;8.10;54.50;;;;;;4992597;28;20433;-54
2023/03/27 09:03:25;;;;;;;10.40;1.90;;;8.20;54.30;;;;;;4988463;28;20415;-52
2023/03/27 09:05:57;;;;;;;9.90;2.08;;;8.20;53.70;;;;;;4988257;28;20817;-50
2023/03/27 09:08:41;;;;;;;6.07;1.40;;;8.30;54.00;;;;;;4988753;28;20061;-52
2023/03/27 09:11:17;;;;;;;9.82;1.50;;;8.30;53.30;;;;;;4987277;28;20053;-54
2023/03/27 09:13:47;;;;;;;5.50;1.67;;;8.30;51.80;;;;;;4990397;28;20050;-50
2023/03/27 09:16:21;;;;;;;9.93;2.30;;;8.40;52.30;;;;;;4992950;28;20049;-56
2023/03/27 09:18:54;;;;;;;10.75;1.60;;;8.40;51.80;;;;;;4985348;28;20049;-52
2023/03/27 09:21:27;;;;;;;9.63;1.85;;;8.40;51.70;;;;;;4996613;28;20494;-51
2023/03/27 09:23:59;;;;;;;4.85;1.20;;;8.50;51.30;;;;;;4998646;28;20168;-50
2023/03/27 09:26:32;;;;;;;11.68;1.38;;;8.50;51.10;;;;;;4995864;28;20053;-48
2023/03/27 09:29:01;;;;;;;9.75;1.20;;;8.50;50.40;;;;;;4997988;28;20076;-50
2023/03/27 09:31:33;;;;;;;10.15;1.95;;;8.50;50.40;;;;;;4995668;28;20054;-50
2023/03/27 09:34:04;;;;;;;7.75;1.35;;;8.50;49.80;;;;;;4992762;28;20056;-51
2023/03/27 09:36:31;;;;;;;8.20;1.60;;;8.50;49.80;;;;;;4993246;28;20057;-54
2023/03/27 09:39:06;;;;;;;8.73;1.67;;;8.50;49.80;;;;;;4995280;28;20084;-52
2023/03/27 09:41:39;;;;;;;6.60;1.38;;;8.50;49.50;;;;;;4995533;28;20478;-51
2023/03/27 09:44:11;;;;;;;4.15;1.25;;;8.40;49.60;;;;;;4999664;28;20257;-49
2023/03/27 09:46:43;;;;;;;5.25;1.60;;;8.40;49.90;;;;;;4999024;28;20512;-51
2023/03/27 09:49:13;;;;;;;5.57;1.73;;;8.40;49.80;;;;;;4997695;28;20064;-51
2023/03/27 09:51:43;;;;;;;7.03;1.08;;;8.40;49.90;;;;;;4993621;28;20054;-48
2023/03/27 09:54:13;;;;;;;6.55;1.33;;;8.50;49.90;;;;;;4997419;28;20402;-48
2023/03/27 09:56:42;;;;;;;4.90;1.33;;;8.50;49.70;;;;;;4996505;28;20057;-50
2023/03/27 09:59:20;;;;;;;10.60;1.48;;;8.50;49.60;;;;;;4999210;28;20057;-50
2023/03/27 10:01:51;;;;;;;11.82;1.40;;;8.60;49.60;;;;;;4999576;28;20398;-51
2023/03/27 10:04:20;;;;;;;13.55;1.73;;;8.60;49.80;;;;;;4997645;28;20046;-48
2023/03/27 10:06:50;;;;;;;7.05;1.77;;;8.60;50.00;;;;;;5001525;28;20694;-47
2023/03/27 10:09:23;;;;;;;5.25;1.50;;;8.60;50.30;;;;;;5000753;28;20062;-50
2023/03/27 10:11:51;;;;;;;4.17;1.20;;;8.60;50.60;;;;;;5001287;28;20057;-48
2023/03/27 10:14:20;;;;;;;3.22;0.93;;;8.70;50.90;;;;;;5003803;28;21050;-49
2023/03/27 10:16:49;;;;;;;3.90;1.08;;;8.70;51.00;;;;;;5003787;28;20046;-49
2023/03/27 10:19:27;;;;;;;6.40;1.30;;;8.70;51.40;;;;;;5004165;28;20061;-49
2023/03/27 10:21:55;;;;;;;8.50;1.75;;;8.70;51.40;;;;;;5000881;28;20050;-47
2023/03/27 10:24:30;;;;;;;13.50;2.58;;;8.70;51.20;;;;;;5003486;28;20046;-48
2023/03/27 10:26:59;;;;;;;4.45;1.42;;;8.70;51.50;;;;;;5001226;28;20386;-49
2023/03/27 10:29:28;;;;;;;11.55;2.28;;;8.70;51.80;;;;;;4998146;28;20050;-48
2023/03/27 10:31:59;;;;;;;9.15;1.67;;;8.70;52.10;;;;;;4998629;28;20077;-50
2023/03/27 10:34:38;;;;;;;8.88;2.10;;;8.60;51.80;;;;;;4998885;28;20057;-48
2023/03/27 10:37:20;;;;;;;10.75;1.90;;;8.70;51.80;;;;;;5000598;28;20401;-50
2023/03/27 10:39:47;;;;;;;10.57;1.55;;;8.70;51.90;;;;;;5000559;28;20497;-49
2023/03/27 10:42:17;;;;;;;7.63;1.75;;;8.70;51.90;;;;;;5001069;28;20054;-49
2023/03/27 10:44:47;;;;;;;8.73;1.80;;;8.80;51.80;;;;;;5002838;28;20049;-50
2023/03/27 10:47:24;;;;;;;7.93;1.80;;;8.80;52.20;;;;;;5003293;28;20050;-48
2023/03/27 10:50:01;;;;;;;6.45;1.50;;;8.80;50.20;;;;;;5000896;28;20061;-47
2023/03/27 10:52:36;;;;;;;7.78;1.55;;;8.90;50.00;;;;;;5002714;28;20064;-46
2023/03/27 10:55:14;;;;;;;10.27;2.00;;;8.90;49.40;;;;;;4999820;28;20073;-47
2023/03/27 10:57:46;;;;;;;8.45;1.65;;;8.90;49.00;;;;;;5001031;28;20053;-53
2023/03/27 11:00:18;;;;;;;7.85;1.63;;;8.90;47.00;;;;;;5003121;28;20053;-50
2023/03/27 11:02:53;;;;;;;10.27;1.75;;;8.90;47.10;;;;;;5002033;28;20050;-55
2023/03/27 11:05:26;;;;;;;9.45;1.83;;;8.90;46.10;;;;;;5002559;28;20057;-51
2023/03/27 11:07:59;;;;;;;4.63;1.48;;;8.90;46.20;;;;;;5000408;28;20058;-52
2023/03/27 11:10:31;;;;;;;9.32;1.80;;;8.90;46.30;;;;;;4999235;28;20427;-48
2023/03/27 11:13:03;;;;;;;8.50;1.83;;;9.00;47.20;;;;;;4999140;28;20060;-50
2023/03/27 11:15:39;;;;;;;8.70;1.90;;;9.00;46.40;;;;;;4999270;28;20042;-48
2023/03/27 11:18:14;;;;;;;7.32;1.90;;;9.10;47.40;;;;;;4995760;28;20970;-48
2023/03/27 11:20:45;;;;;;;8.70;1.83;;;9.20;47.60;;;;;;4999965;28;20490;-48
2023/03/27 11:23:18;;;;;;;5.57;1.70;;;9.30;46.90;;;;;;5001641;28;20049;-49
2023/03/27 11:25:49;;;;;;;4.88;1.20;;;9.30;46.60;;;;;;4999069;28;20062;-53
2023/03/27 11:28:22;;;;;;;9.43;1.80;;;9.30;44.20;;;;;;4996330;28;20046;-51
2023/03/27 11:30:54;;;;;;;10.30;2.20;;;9.30;45.50;;;;;;4997951;28;20430;-50
2023/03/27 11:33:36;;;;;;;13.05;2.03;;;9.20;45.80;;;;;;4996089;28;20065;-51
2023/03/27 11:36:21;;;;;;;7.03;1.95;;;9.20;45.10;;;;;;5002471;28;20049;-54
2023/03/27 11:39:05;;;;;;;8.93;1.88;;;9.20;45.60;;;;;;5003625;28;20500;-50
2023/03/27 11:41:32;;;;;;;6.13;1.75;;;9.20;46.30;;;;;;5002381;28;20057;-51
2023/03/27 11:43:59;;;;;;;7.30;1.45;;;9.20;46.90;;;;;;5004520;28;20054;-47
2023/03/27 11:46:40;;;;;;;5.55;1.45;;;9.20;47.40;;;;;;5001723;28;20057;-48
2023/03/27 11:49:23;;;;;;;6.28;1.40;;;9.20;47.60;;;;;;5001524;28;20390;-50
2023/03/27 11:52:03;;;;;;;9.93;1.85;;;9.20;47.80;;;;;;5001737;28;20064;-49
2023/03/27 11:54:44;;;;;;;11.27;1.40;;;9.20;48.00;;;;;;5002552;28;20068;-51
2023/03/27 11:57:18;;;;;;;11.50;1.88;;;9.10;47.30;;;;;;5002501;28;20065;-53
2023/03/27 12:00:03;;;;;;;13.10;1.95;;;9.00;47.30;;;;;;5003441;28;20417;-52
2023/03/27 12:03:00;;;;;;;15.70;1.70;;;9.10;46.90;;;;;;5002212;28;20053;-57
2023/03/27 12:05:41;;;;;;;7.57;1.48;;;9.00;46.40;;;;;;4994676;28;20054;-52
2023/03/27 12:08:15;;;;;;;6.95;2.00;;;9.10;47.20;;;;;;5003260;28;20054;-51
2023/03/27 12:10:46;;;;;;;10.17;2.33;;;9.10;47.10;;;;;;5002481;28;20062;-51
2023/03/27 12:13:38;;;;;;;18.38;1.40;;;9.10;47.00;;;;;;5000991;28;20060;-50
2023/03/27 12:16:30;;;;;;;5.20;1.35;;;9.20;47.10;;;;;;5002907;28;20061;-50
2023/03/27 12:19:06;;;;;;;8.68;2.10;;;9.20;46.50;;;;;;5001740;28;20865;-49
2023/03/27 12:21:47;;;;;;;9.32;1.73;;;9.20;47.30;;;;;;5001343;28;20471;-50
2023/03/27 12:24:27;;;;;;;4.70;1.40;;;9.20;46.70;;;;;;5000783;28;20057;-51
2023/03/27 12:27:22;;;;;;;7.22;1.42;;;9.20;47.00;;;;;;5001896;28;20061;-52
2023/03/27 12:30:16;;;;;;;8.00;1.77;;;9.20;47.90;;;;;;4997875;28;20060;-56
2023/03/27 12:33:17;;;;;;;8.20;1.60;;;9.20;48.20;;;;;;5001924;28;20604;-51
2023/03/27 12:35:48;;;;;;;11.02;1.73;;;9.10;47.90;;;;;;5002836;28;20053;-50
2023/03/27 12:38:27;;;;;;;8.30;1.33;;;9.10;48.20;;;;;;5000607;28;20046;-48
2023/03/27 12:41:07;;;;;;;7.53;1.60;;;9.10;48.30;;;;;;5002419;28;20164;-51
2023/03/27 12:43:39;;;;;;;6.43;1.40;;;9.10;48.90;;;;;;5001444;28;20049;-48
2023/03/27 12:46:15;;;;;;;7.65;1.80;;;9.20;49.40;;;;;;5002336;28;20049;-51
2023/03/27 12:48:51;;;;;;;12.68;1.80;;;9.20;49.40;;;;;;4998605;28;20053;-57
2023/03/27 12:51:19;;;;;;;9.45;2.05;;;9.20;50.00;;;;;;5001361;28;20050;-56
2023/03/27 12:53:51;;;;;;;6.82;1.90;;;9.10;50.30;;;;;;5001908;28;20061;-57
2023/03/27 12:56:25;;;;;;;6.88;2.08;;;9.00;50.40;;;;;;5000725;28;20065;-55
2023/03/27 12:58:54;;;;;;;9.73;1.83;;;8.80;50.70;;;;;;5000342;28;20461;-55
2023/03/27 13:01:35;;;;;;;6.00;1.42;;;8.70;51.00;;;;;;5001187;28;20514;-51
2023/03/27 13:04:22;;;;;;;5.10;1.70;;;8.40;51.30;;;;;;5000203;28;20136;-51
2023/03/27 13:06:57;;;;;;;6.13;1.23;;;8.20;51.80;;;;;;5001170;28;20498;-49
2023/03/27 13:09:42;;;;;;;4.13;1.00;;;8.00;52.50;;;;;;4997999;28;20077;-50
2023/03/27 13:12:27;;;;;;;5.13;1.30;;;7.80;53.10;;;;;;4997188;28;20054;-50
2023/03/27 13:15:22;;;;;;;4.47;1.70;;;7.70;54.10;;;;;;4999450;28;20054;-50
2023/03/27 13:18:03;;;;;;;5.88;1.27;;;7.50;54.90;;;;;;4981139;28;20161;-51
2023/03/27 13:20:44;;;;;;;9.98;1.38;;;7.40;55.70;;;;;;4997489;28;20497;-50
2023/03/27 13:23:25;;;;;;;5.25;1.60;;;7.40;56.10;;;;;;5000750;28;20390;-52
2023/03/27 13:26:30;;;;;;;6.63;1.48;;;7.30;55.60;;;;;;4999690;28;20057;-50
2023/03/27 13:28:58;;;;;;;8.65;1.63;;;7.30;55.20;;;;;;4999590;28;20049;-49
2023/03/27 13:31:58;;;;;;;5.82;1.30;;;7.20;55.80;;;;;;5000665;28;20493;-48
2023/03/27 13:34:34;;;;;;;4.90;1.08;;;7.20;55.90;;;;;;4999109;28;20061;-47
2023/03/27 13:37:42;;;;;;;9.95;1.13;;;7.30;55.70;;;;;;4998079;28;20050;-46